createdAt,value
2023-04-27T00:00:01.133Z,82.75
2023-04-27T00:03:06.557Z,82.90
2023-04-27T00:06:10.041Z,82.95
2023-04-27T00:09:12.674Z,83.17
2023-04-27T00:12:15.098Z,82.90
2023-04-27T00:15:17.118Z,83.20
2023-04-27T00:18:19.435Z,84.06
2023-04-27T00:21:21.686Z,84.16
2023-04-27T00:24:23.844Z,84.39
2023-04-27T00:27:25.932Z,84.50
2023-04-27T00:30:28.042Z,84.81
2023-04-27T00:33:30.093Z,84.88
2023-04-27T00:36:34.456Z,83.96
2023-04-27T00:39:36.453Z,83.07
2023-04-27T00:42:38.945Z,83.15
2023-04-27T00:45:43.412Z,82.85
2023-04-27T00:48:46.522Z,82.85
2023-04-27T00:51:48.917Z,82.47
2023-04-27T00:54:52.329Z,82.63
2023-04-27T00:57:54.339Z,81.78
2023-04-27T01:00:56.640Z,81.62
2023-04-27T01:03:59.081Z,81.67
2023-04-27T01:07:03.566Z,82.22
2023-04-27T01:10:07.188Z,83.03
2023-04-27T01:13:09.828Z,82.14
2023-04-27T01:16:11.828Z,81.41
2023-04-27T01:19:14.094Z,81.36
2023-04-27T01:22:16.427Z,81.58
2023-04-27T01:25:20.186Z,81.46
2023-04-27T01:28:22.164Z,81.71
2023-04-27T01:31:24.266Z,81.95
2023-04-27T01:34:26.422Z,82.14
2023-04-27T01:37:28.534Z,82.34
2023-04-27T01:40:30.690Z,82.50
2023-04-27T01:43:33.012Z,82.36
2023-04-27T01:46:34.997Z,82.24
2023-04-27T01:49:37.266Z,83.05
2023-04-27T01:52:39.474Z,83.20
2023-04-27T01:55:42.097Z,83.19
2023-04-27T01:58:44.306Z,83.09
2023-04-27T02:01:46.294Z,83.28
2023-04-27T02:04:48.551Z,83.22
2023-04-27T02:07:51.156Z,83.26
2023-04-27T02:10:53.161Z,83.20
2023-04-27T02:13:55.181Z,83.23
2023-04-27T02:16:57.099Z,82.98
2023-04-27T02:19:59.070Z,83.26
2023-04-27T02:23:02.317Z,83.14
2023-04-27T02:26:04.305Z,82.90
2023-04-27T02:29:06.391Z,83.00
2023-04-27T02:32:08.871Z,82.95
2023-04-27T02:35:11.254Z,83.02
2023-04-27T02:38:13.728Z,82.80
2023-04-27T02:41:15.761Z,82.74
2023-04-27T02:44:17.641Z,82.11
2023-04-27T02:47:19.620Z,82.12
2023-04-27T02:50:21.827Z,81.93
2023-04-27T02:53:23.845Z,81.99
2023-04-27T02:56:25.833Z,81.81
2023-04-27T02:59:28.270Z,82.32
2023-04-27T03:02:30.597Z,81.99
2023-04-27T03:05:32.897Z,81.50
2023-04-27T03:08:50.754Z,81.50
2023-04-27T03:11:52.945Z,81.60
2023-04-27T03:14:54.905Z,81.31
2023-04-27T03:17:56.821Z,80.90
2023-04-27T03:21:06.685Z,80.83
2023-04-27T03:24:08.672Z,81.15
2023-04-27T03:27:10.830Z,81.41
2023-04-27T03:30:13.252Z,81.87
2023-04-27T03:33:15.925Z,82.22
2023-04-27T03:36:17.917Z,82.06
2023-04-27T03:39:20.022Z,81.64
2023-04-27T03:42:22.366Z,81.55
2023-04-27T03:45:24.812Z,81.65
2023-04-27T03:48:26.914Z,81.84
2023-04-27T03:51:32.260Z,81.64
2023-04-27T03:54:34.352Z,81.79
2023-04-27T03:57:36.342Z,81.99
2023-04-27T04:00:39.172Z,82.18
2023-04-27T04:03:41.333Z,82.48
2023-04-27T04:06:43.423Z,82.63
2023-04-27T04:09:45.443Z,82.57
2023-04-27T04:12:47.452Z,82.94
2023-04-27T04:15:49.431Z,83.53
2023-04-27T04:18:52.103Z,84.04
2023-04-27T04:21:54.862Z,84.44
2023-04-27T04:24:57.714Z,84.07
2023-04-27T04:27:59.691Z,83.53
2023-04-27T04:31:02.069Z,83.35
2023-04-27T04:34:04.077Z,82.66
2023-04-27T04:37:06.301Z,82.57
2023-04-27T04:40:09.297Z,82.08
2023-04-27T04:43:12.329Z,81.79
2023-04-27T04:46:14.278Z,81.69
2023-04-27T04:49:16.517Z,81.00
2023-04-27T04:52:18.840Z,80.24
2023-04-27T04:55:20.914Z,79.57
2023-04-27T04:58:22.842Z,78.68
2023-04-27T05:01:24.950Z,77.78
2023-04-27T05:04:27.642Z,77.28
2023-04-27T05:07:29.647Z,75.83
2023-04-27T05:10:31.850Z,75.50
2023-04-27T05:13:34.053Z,74.21
2023-04-27T05:16:36.164Z,74.13
2023-04-27T05:19:38.262Z,72.75
2023-04-27T05:22:40.773Z,72.09
2023-04-27T05:25:42.983Z,72.38
2023-04-27T05:28:45.332Z,71.94
2023-04-27T05:31:47.353Z,71.20
2023-04-27T05:34:49.749Z,70.58
2023-04-27T05:37:51.810Z,69.64
2023-04-27T05:40:58.737Z,67.33
2023-04-27T05:44:00.861Z,67.17
2023-04-27T05:47:02.800Z,66.83
2023-04-27T05:50:05.397Z,67.50
2023-04-27T05:53:07.837Z,67.81
2023-04-27T05:56:11.813Z,66.95
2023-04-27T05:59:13.979Z,66.96
2023-04-27T06:02:18.327Z,66.33
2023-04-27T06:05:20.799Z,66.99
2023-04-27T06:11:42.682Z,66.90
2023-04-27T06:14:44.724Z,66.55
2023-04-27T06:17:46.888Z,66.84
2023-04-27T06:20:48.900Z,66.74
2023-04-27T06:23:50.892Z,66.00
2023-04-27T06:26:52.869Z,66.01
2023-04-27T06:29:54.850Z,65.87
2023-04-27T06:32:56.940Z,65.33
2023-04-27T06:35:58.951Z,64.31
2023-04-27T06:39:01.027Z,63.93
2023-04-27T06:42:06.571Z,62.68
2023-04-27T06:45:08.722Z,59.64
2023-04-27T06:48:10.862Z,56.28
2023-04-27T06:51:13.688Z,56.24
2023-04-27T06:54:15.801Z,58.17
2023-04-27T06:57:17.755Z,54.07
2023-04-27T07:00:20.164Z,54.90
2023-04-27T07:03:22.542Z,53.91
2023-04-27T07:06:26.074Z,53.25
2023-04-27T07:09:29.224Z,47.53
2023-04-27T07:12:31.468Z,44.94
2023-04-27T07:15:34.168Z,48.59
2023-04-27T07:18:36.352Z,46.87
2023-04-27T07:21:38.455Z,47.73
2023-04-27T07:24:40.395Z,46.56
2023-04-27T07:27:42.982Z,43.19
2023-04-27T07:30:44.955Z,44.01
2023-04-27T07:33:46.938Z,44.91
2023-04-27T07:36:48.880Z,42.66
2023-04-27T07:39:54.521Z,40.73
2023-04-27T07:42:56.652Z,42.85
2023-04-27T07:45:58.749Z,43.74
2023-04-27T07:49:01.110Z,42.92
2023-04-27T07:52:04.821Z,42.68
2023-04-27T07:55:07.406Z,41.21
2023-04-27T07:58:09.414Z,39.79
2023-04-27T08:01:11.724Z,39.10
2023-04-27T08:04:18.284Z,39.62
2023-04-27T08:07:20.571Z,38.94
2023-04-27T08:10:23.464Z,39.59
2023-04-27T08:13:25.631Z,37.78
2023-04-27T08:16:28.096Z,37.50
2023-04-27T08:19:30.131Z,36.89
2023-04-27T08:22:32.710Z,36.48
2023-04-27T08:25:37.116Z,35.80
2023-04-27T08:28:39.120Z,34.80
2023-04-27T08:31:41.207Z,33.48
2023-04-27T08:34:45.017Z,32.92
2023-04-27T08:37:46.985Z,32.44
2023-04-27T08:40:49.259Z,30.55
2023-04-27T08:43:52.127Z,31.64
2023-04-27T08:46:54.133Z,31.67
2023-04-27T08:49:56.238Z,29.53
2023-04-27T08:52:58.191Z,29.02
2023-04-27T08:56:00.327Z,31.06
2023-04-27T08:59:04.656Z,29.88
2023-04-27T09:02:18.092Z,31.30
2023-04-27T09:05:22.526Z,32.03
2023-04-27T09:08:24.634Z,32.84
2023-04-27T09:11:34.069Z,32.91
2023-04-27T09:14:36.887Z,31.66
2023-04-27T09:17:39.047Z,31.81
2023-04-27T09:20:54.027Z,32.06
2023-04-27T09:23:56.911Z,28.62
2023-04-27T09:27:00.688Z,28.71
2023-04-27T09:30:13.321Z,27.43
2023-04-27T09:33:15.498Z,25.85
2023-04-27T09:36:17.546Z,24.85
2023-04-27T09:39:20.271Z,23.86
2023-04-27T09:42:22.530Z,24.31
2023-04-27T09:45:25.959Z,25.07
2023-04-27T09:48:28.250Z,26.31
2023-04-27T09:51:30.291Z,27.36
2023-04-27T09:54:34.522Z,25.55
2023-04-27T09:57:49.062Z,25.24
2023-04-27T10:01:03.612Z,25.22
2023-04-27T10:04:18.071Z,25.97
2023-04-27T10:07:20.764Z,25.46
2023-04-27T10:10:23.037Z,24.68
2023-04-27T10:13:27.153Z,23.90
2023-04-27T10:16:43.637Z,23.93
2023-04-27T10:19:58.859Z,23.84
2023-04-27T10:23:01.130Z,23.93
2023-04-27T10:26:07.740Z,25.03
2023-04-27T10:29:10.408Z,24.45
2023-04-27T10:32:18.945Z,24.10
2023-04-27T10:35:22.942Z,23.35
2023-04-27T10:38:30.393Z,24.50
2023-04-27T10:41:36.417Z,23.42
2023-04-27T10:44:39.143Z,24.08
2023-04-27T10:47:45.697Z,26.00
2023-04-27T10:50:47.839Z,27.36
2023-04-27T10:53:52.918Z,28.62
2023-04-27T10:57:02.217Z,29.71
2023-04-27T11:00:05.809Z,29.75
2023-04-27T11:03:22.951Z,29.08
2023-04-27T11:06:25.505Z,28.15
2023-04-27T11:09:27.784Z,27.75
2023-04-27T11:12:32.309Z,28.22
2023-04-27T11:15:46.991Z,27.50
2023-04-27T11:18:49.030Z,28.44
2023-04-27T11:21:51.619Z,29.48
2023-04-27T11:24:53.778Z,29.36
2023-04-27T11:27:56.038Z,28.29
2023-04-27T11:31:01.017Z,27.55
2023-04-27T11:34:04.058Z,27.30
2023-04-27T11:37:17.805Z,26.57
2023-04-27T11:40:20.741Z,25.40
2023-04-27T11:43:26.198Z,24.87
2023-04-27T11:46:28.199Z,25.27
2023-04-27T11:49:30.606Z,25.91
2023-04-27T11:52:36.488Z,25.00
2023-04-27T11:55:41.208Z,24.86
2023-04-27T11:58:46.282Z,23.93
2023-04-27T12:01:48.957Z,25.14
2023-04-27T12:04:51.991Z,24.89
2023-04-27T12:07:54.086Z,25.22
2023-04-27T12:10:56.720Z,25.88
2023-04-27T12:14:03.049Z,25.08
2023-04-27T12:17:05.109Z,24.66
2023-04-27T12:20:07.984Z,26.41
2023-04-27T12:23:09.996Z,26.63
2023-04-27T12:26:15.019Z,26.51
2023-04-27T12:29:17.982Z,26.36
2023-04-27T12:32:20.349Z,25.45
2023-04-27T12:35:22.493Z,24.92
2023-04-27T12:38:24.486Z,23.94
2023-04-27T12:41:26.749Z,23.75
2023-04-27T12:44:28.716Z,24.28
2023-04-27T12:50:38.109Z,25.60
2023-04-27T12:53:40.067Z,27.74
2023-04-27T12:56:42.389Z,28.21
2023-04-27T12:59:44.316Z,29.73
2023-04-27T13:02:46.522Z,30.62
2023-04-27T13:05:48.719Z,28.04
2023-04-27T13:08:51.297Z,27.04
2023-04-27T13:11:54.294Z,28.74
2023-04-27T13:14:57.142Z,27.88
2023-04-27T13:17:59.368Z,29.31
2023-04-27T13:21:02.764Z,28.90
2023-04-27T13:24:05.424Z,28.82
2023-04-27T13:27:07.717Z,28.17
2023-04-27T13:30:10.258Z,27.48
2023-04-27T13:33:22.483Z,26.15
2023-04-27T13:36:24.977Z,25.55
2023-04-27T13:39:26.882Z,26.49
2023-04-27T13:42:29.752Z,27.11
2023-04-27T13:45:32.437Z,26.61
2023-04-27T13:48:34.727Z,25.80
2023-04-27T13:51:36.893Z,26.12
2023-04-27T13:54:38.820Z,26.43
2023-04-27T13:57:40.746Z,26.41
2023-04-27T14:00:42.859Z,27.37
2023-04-27T14:03:45.138Z,27.71
2023-04-27T14:06:47.204Z,29.17
2023-04-27T14:09:49.619Z,28.74
2023-04-27T14:12:51.637Z,27.52
2023-04-27T14:15:53.565Z,26.69
2023-04-27T14:18:56.030Z,26.12
2023-04-27T14:21:59.172Z,26.54
2023-04-27T14:25:01.108Z,26.70
2023-04-27T14:28:05.246Z,26.58
2023-04-27T14:31:07.644Z,27.12
2023-04-27T14:34:09.938Z,26.25
2023-04-27T14:37:11.851Z,26.10
2023-04-27T14:40:14.190Z,25.64
2023-04-27T14:43:17.898Z,25.54
2023-04-27T14:46:21.383Z,25.29
2023-04-27T14:49:24.221Z,25.77
2023-04-27T14:52:26.276Z,26.91
2023-04-27T14:55:29.537Z,28.57
2023-04-27T14:58:34.543Z,28.94
2023-04-27T15:01:37.184Z,30.22
2023-04-27T15:04:40.142Z,30.97
2023-04-27T15:07:42.130Z,31.88
2023-04-27T15:10:45.016Z,33.24
2023-04-27T15:13:47.011Z,32.44
2023-04-27T15:16:49.654Z,32.62
2023-04-27T15:19:52.487Z,32.28
2023-04-27T15:22:56.321Z,32.11
2023-04-27T15:25:59.500Z,32.53
2023-04-27T15:29:02.141Z,33.55
2023-04-27T15:32:05.433Z,32.81
2023-04-27T15:35:08.459Z,32.62
2023-04-27T15:38:13.212Z,32.64
2023-04-27T15:41:16.297Z,32.67
2023-04-27T15:44:18.892Z,32.96
2023-04-27T15:47:21.394Z,33.29
2023-04-27T15:50:23.839Z,33.27
2023-04-27T15:53:25.895Z,32.75
2023-04-27T15:56:30.028Z,33.25
2023-04-27T15:59:32.746Z,33.15
2023-04-27T16:02:34.899Z,33.29
2023-04-27T16:05:37.029Z,33.77
2023-04-27T16:08:39.072Z,33.87
2023-04-27T16:11:42.774Z,34.01
2023-04-27T16:14:44.682Z,34.51
2023-04-27T16:17:46.830Z,33.94
2023-04-27T16:20:48.819Z,34.43
2023-04-27T16:23:51.765Z,34.51
2023-04-27T16:26:53.839Z,34.95
2023-04-27T16:29:56.479Z,35.08
2023-04-27T16:32:58.536Z,35.51
2023-04-27T16:36:00.799Z,36.08
2023-04-27T16:39:05.133Z,37.31
2023-04-27T16:42:07.239Z,37.63
2023-04-27T16:45:10.948Z,37.94
2023-04-27T16:48:13.222Z,37.98
2023-04-27T16:51:15.436Z,38.29
2023-04-27T16:54:17.574Z,38.07
2023-04-27T16:57:20.705Z,38.42
2023-04-27T17:00:22.942Z,38.21
2023-04-27T17:03:26.330Z,38.93
2023-04-27T17:06:30.407Z,39.92
2023-04-27T17:09:32.319Z,39.58
2023-04-27T17:12:35.979Z,40.06
2023-04-27T17:15:38.308Z,40.44
2023-04-27T17:18:41.183Z,40.50
2023-04-27T17:21:43.502Z,40.39
2023-04-27T17:24:46.047Z,41.45
2023-04-27T17:27:48.258Z,41.42
2023-04-27T17:30:50.502Z,42.04
2023-04-27T17:33:52.572Z,41.65
2023-04-27T17:36:54.538Z,41.86
2023-04-27T17:39:56.581Z,42.20
2023-04-27T17:42:58.886Z,42.18
2023-04-27T17:46:01.022Z,42.23
2023-04-27T17:49:03.045Z,42.50
2023-04-27T17:52:05.535Z,43.13
2023-04-27T17:55:07.894Z,42.91
2023-04-27T17:58:11.310Z,43.12
2023-04-27T18:01:13.777Z,43.17
2023-04-27T18:04:16.155Z,43.76
2023-04-27T18:07:19.358Z,44.64
2023-04-27T18:10:21.916Z,45.10
2023-04-27T18:13:24.113Z,45.67
2023-04-27T18:16:26.568Z,46.10
2023-04-27T18:19:28.691Z,46.49
2023-04-27T18:22:31.253Z,45.78
2023-04-27T18:25:33.652Z,46.22
2023-04-27T18:28:37.968Z,46.28
2023-04-27T18:31:39.965Z,46.29
2023-04-27T18:34:42.987Z,46.48
2023-04-27T18:37:48.660Z,46.64
2023-04-27T18:40:53.764Z,47.21
2023-04-27T18:44:03.647Z,47.65
2023-04-27T18:47:07.748Z,48.22
2023-04-27T18:50:11.264Z,48.72
2023-04-27T18:53:13.654Z,48.61
2023-04-27T18:56:16.262Z,48.82
2023-04-27T18:59:18.970Z,48.66
2023-04-27T19:02:21.394Z,48.55
2023-04-27T19:05:23.597Z,48.67
2023-04-27T19:08:25.838Z,49.14
2023-04-27T19:11:29.259Z,49.71
2023-04-27T19:14:32.031Z,51.13
2023-04-27T19:17:35.640Z,53.15
2023-04-27T19:20:39.170Z,54.08
2023-04-27T19:23:43.359Z,53.46
2023-04-27T19:26:46.872Z,53.63
2023-04-27T19:29:54.081Z,54.10
2023-04-27T19:32:56.291Z,54.30
2023-04-27T19:35:58.716Z,53.77
2023-04-27T19:39:01.221Z,53.33
2023-04-27T19:42:03.941Z,53.31
2023-04-27T19:45:07.430Z,53.42
2023-04-27T19:48:09.529Z,53.58
2023-04-27T19:51:15.050Z,53.55
2023-04-27T19:54:18.197Z,54.58
2023-04-27T19:57:22.131Z,53.82
2023-04-27T20:00:24.380Z,54.48
2023-04-27T20:03:26.543Z,54.71
2023-04-27T20:06:29.269Z,55.12
2023-04-27T20:09:31.884Z,55.30
2023-04-27T20:12:44.059Z,55.42
2023-04-27T20:15:54.195Z,54.91
2023-04-27T20:18:56.424Z,54.89
2023-04-27T20:21:59.254Z,54.98
2023-04-27T20:25:02.728Z,55.11
2023-04-27T20:28:04.855Z,55.17
2023-04-27T20:31:07.395Z,55.08
2023-04-27T20:34:09.830Z,55.24
2023-04-27T20:37:11.812Z,55.40
2023-04-27T20:40:17.809Z,56.43
2023-04-27T20:43:21.309Z,55.71
2023-04-27T20:46:23.348Z,56.30
2023-04-27T20:49:34.508Z,56.02
2023-04-27T20:52:37.401Z,57.12
2023-04-27T20:55:39.491Z,57.12
2023-04-27T20:58:41.528Z,57.03
2023-04-27T21:01:43.528Z,56.87
2023-04-27T21:04:46.077Z,56.37
2023-04-27T21:07:48.130Z,56.80
2023-04-27T21:10:50.681Z,57.11
2023-04-27T21:13:53.055Z,58.29
2023-04-27T21:16:55.103Z,59.01
2023-04-27T21:19:58.201Z,59.00
2023-04-27T21:23:00.766Z,60.38
2023-04-27T21:26:02.688Z,59.84
2023-04-27T21:29:06.053Z,60.29
2023-04-27T21:32:08.269Z,60.43
2023-04-27T21:35:10.862Z,60.16
2023-04-27T21:38:12.852Z,60.59
2023-04-27T21:41:16.724Z,61.38
2023-04-27T21:44:19.272Z,61.58
2023-04-27T21:47:21.408Z,62.36
2023-04-27T21:50:23.809Z,62.75
2023-04-27T21:53:26.384Z,62.47
2023-04-27T21:56:28.805Z,62.50
2023-04-27T21:59:30.953Z,62.21
2023-04-27T22:02:48.552Z,62.23
2023-04-27T22:05:50.963Z,62.09
2023-04-27T22:08:53.284Z,60.70
2023-04-27T22:11:55.240Z,61.25
2023-04-27T22:14:57.356Z,60.91
2023-04-27T22:17:59.547Z,60.33
2023-04-27T22:21:01.604Z,60.61
2023-04-27T22:24:03.767Z,59.34
2023-04-27T22:27:05.812Z,59.59
2023-04-27T22:30:09.054Z,59.72
2023-04-27T22:33:11.572Z,58.71
2023-04-27T22:36:13.827Z,57.88
2023-04-27T22:39:16.023Z,57.81
2023-04-27T22:42:18.008Z,57.94
2023-04-27T22:45:20.069Z,58.39
2023-04-27T22:48:22.217Z,58.90
2023-04-27T22:51:27.323Z,60.27
2023-04-27T22:54:29.596Z,62.44
2023-04-27T22:57:31.631Z,63.32
2023-04-27T23:00:33.799Z,63.20
2023-04-27T23:03:36.093Z,63.72
2023-04-27T23:06:38.262Z,63.17
2023-04-27T23:09:40.194Z,63.13
2023-04-27T23:12:42.274Z,63.37
2023-04-27T23:15:44.228Z,63.04
2023-04-27T23:18:46.968Z,63.57
2023-04-27T23:21:49.013Z,63.60
2023-04-27T23:24:51.896Z,63.40
2023-04-27T23:27:53.917Z,63.40
2023-04-27T23:30:55.988Z,63.84
2023-04-27T23:33:58.336Z,63.55
2023-04-27T23:37:01.069Z,62.42
2023-04-27T23:40:03.157Z,61.35
2023-04-27T23:43:05.141Z,59.85
2023-04-27T23:46:07.253Z,59.77
2023-04-27T23:49:09.449Z,60.21
2023-04-27T23:52:12.193Z,60.22
2023-04-27T23:55:14.754Z,60.41
2023-04-27T23:58:17.046Z,59.48
